Time;durP1;ratioP1;P1;durP2;ratioP2;P2;SDS_P1;SDS_P2;PMS_P1;PMS_P2;Temp;Humidity;BMP_temperature;BMP_pressure;BME280_temperature;BME280_humidity;BME280_pressure;Samples;Min_cycle;Max_cycle;Signal;HPM_P1;HPM_P2
2023/11/12 00:00:47;;;;;;;11.48;10.25;;;6.70;99.90;;;;;;5096026;28;20215;-62
2023/11/12 00:03:14;;;;;;;9.88;8.88;;;6.70;99.90;;;;;;5096024;28;20204;-62
2023/11/12 00:05:41;;;;;;;14.15;10.02;;;6.70;99.90;;;;;;5095582;28;20228;-63
2023/11/12 00:08:08;;;;;;;13.90;10.57;;;6.70;99.90;;;;;;5095392;28;20658;-62
2023/11/12 00:10:34;;;;;;;12.27;10.50;;;6.70;99.90;;;;;;5093993;28;20208;-62
2023/11/12 00:13:01;;;;;;;19.92;10.48;;;6.70;99.90;;;;;;5093597;28;20669;-63
2023/11/12 00:15:30;;;;;;;12.68;10.77;;;6.70;99.90;;;;;;5093896;28;20303;-63
2023/11/12 00:17:57;;;;;;;14.77;11.48;;;6.70;99.90;;;;;;5094220;28;20220;-62
2023/11/12 00:20:25;;;;;;;12.13;10.60;;;6.70;99.90;;;;;;5094186;28;20200;-62
2023/11/12 00:22:52;;;;;;;13.15;11.73;;;6.70;99.90;;;;;;5095960;28;20232;-63
2023/11/12 00:25:19;;;;;;;13.35;10.95;;;6.70;99.90;;;;;;5097904;28;20224;-62
2023/11/12 00:27:45;;;;;;;14.00;10.30;;;6.70;99.90;;;;;;5101306;28;20666;-63
2023/11/12 00:30:13;;;;;;;17.27;12.32;;;6.70;99.90;;;;;;5107665;28;20206;-63
2023/11/12 00:32:42;;;;;;;14.45;10.93;;;6.70;99.90;;;;;;5104859;28;20661;-64
2023/11/12 00:35:09;;;;;;;14.85;11.18;;;6.70;99.90;;;;;;5104446;28;20659;-64
2023/11/12 00:37:36;;;;;;;13.90;10.57;;;6.70;99.90;;;;;;5106317;28;20234;-64
2023/11/12 00:40:03;;;;;;;16.08;11.65;;;6.70;99.90;;;;;;5101350;28;20200;-62
2023/11/12 00:42:30;;;;;;;14.90;12.57;;;6.70;99.90;;;;;;5099011;28;20200;-63
2023/11/12 00:44:57;;;;;;;13.20;11.05;;;6.70;99.90;;;;;;5099433;28;20230;-61
2023/11/12 00:47:24;;;;;;;12.93;10.82;;;6.70;99.90;;;;;;5099010;28;20197;-62
2023/11/12 00:49:53;;;;;;;17.10;11.45;;;6.70;99.90;;;;;;5099108;28;20196;-62
2023/11/12 00:52:20;;;;;;;13.95;11.60;;;6.70;99.90;;;;;;5099180;28;20211;-63
2023/11/12 00:54:47;;;;;;;14.10;12.70;;;6.70;99.90;;;;;;5098718;28;20227;-63
2023/11/12 00:57:14;;;;;;;14.80;12.55;;;6.60;99.90;;;;;;5097878;28;20216;-63
2023/11/12 00:59:40;;;;;;;14.55;12.60;;;6.60;99.90;;;;;;5101755;28;20200;-64
2023/11/12 01:02:09;;;;;;;17.73;14.05;;;6.60;99.90;;;;;;5100516;28;20204;-62
2023/11/12 01:04:36;;;;;;;18.00;14.63;;;6.60;99.90;;;;;;5098039;28;20294;-63
2023/11/12 01:07:04;;;;;;;19.27;13.75;;;6.60;99.90;;;;;;5099723;28;20196;-62
2023/11/12 01:09:31;;;;;;;18.85;14.23;;;6.60;99.90;;;;;;5101738;28;20204;-63
2023/11/12 01:11:59;;;;;;;18.50;13.77;;;6.60;99.90;;;;;;5098898;28;20230;-64
2023/11/12 01:14:26;;;;;;;18.70;15.18;;;6.60;99.90;;;;;;5098782;28;20224;-63
2023/11/12 01:16:53;;;;;;;17.00;14.95;;;6.60;99.90;;;;;;5097507;28;20207;-63
2023/11/12 01:19:19;;;;;;;18.60;15.05;;;6.50;99.90;;;;;;5097469;28;20303;-62
2023/11/12 01:21:46;;;;;;;19.52;14.75;;;6.50;99.90;;;;;;5097506;28;20204;-62
2023/11/12 01:24:14;;;;;;;19.25;15.95;;;6.50;99.90;;;;;;5097719;28;20283;-63
2023/11/12 01:26:41;;;;;;;19.50;14.65;;;6.50;99.90;;;;;;5097819;28;20205;-63
2023/11/12 01:29:08;;;;;;;18.98;14.60;;;6.50;99.90;;;;;;5097229;28;20215;-62
2023/11/12 01:31:35;;;;;;;18.42;15.18;;;6.40;99.90;;;;;;5097317;28;20200;-63
2023/11/12 01:34:02;;;;;;;19.25;15.73;;;6.40;99.90;;;;;;5097771;28;20287;-63
2023/11/12 01:36:29;;;;;;;19.25;15.38;;;6.40;99.90;;;;;;5097941;28;20676;-62
2023/11/12 01:38:56;;;;;;;19.85;15.40;;;6.40;99.90;;;;;;5096374;28;20216;-62
2023/11/12 01:41:25;;;;;;;20.63;16.15;;;6.40;99.90;;;;;;5101772;28;20253;-61
2023/11/12 01:43:51;;;;;;;19.45;16.45;;;6.40;99.90;;;;;;5097531;28;20205;-62
2023/11/12 01:46:19;;;;;;;20.48;15.85;;;6.40;99.90;;;;;;5097863;28;20224;-63
2023/11/12 01:48:46;;;;;;;21.48;16.05;;;6.40;99.90;;;;;;5098783;28;20200;-63
2023/11/12 01:51:13;;;;;;;20.65;16.90;;;6.50;99.90;;;;;;5097564;28;20196;-62
2023/11/12 01:53:41;;;;;;;22.13;17.05;;;6.50;99.90;;;;;;5097632;28;20551;-62
2023/11/12 01:56:11;;;;;;;21.25;16.10;;;6.50;99.90;;;;;;5097025;28;20335;-63
2023/11/12 01:58:41;;;;;;;20.88;16.85;;;6.50;99.90;;;;;;5097136;28;20299;-63
2023/11/12 02:01:08;;;;;;;25.35;15.85;;;6.50;99.90;;;;;;5096389;28;20690;-63
2023/11/12 02:03:36;;;;;;;22.33;16.52;;;6.50;99.90;;;;;;5097190;28;20200;-63
2023/11/12 02:06:05;;;;;;;20.75;16.23;;;6.50;99.90;;;;;;5097229;28;20709;-63
2023/11/12 02:08:32;;;;;;;20.35;16.90;;;6.50;99.90;;;;;;5096619;28;20704;-62
2023/11/12 02:11:04;;;;;;;21.10;16.98;;;6.50;99.90;;;;;;5096123;28;20208;-63
2023/11/12 02:13:31;;;;;;;25.65;18.02;;;6.50;99.90;;;;;;5100395;28;20638;-62
2023/11/12 02:16:00;;;;;;;21.90;18.15;;;6.50;99.90;;;;;;5101445;28;20311;-63
2023/11/12 02:18:26;;;;;;;26.73;18.90;;;6.50;99.90;;;;;;5097483;28;20216;-62
2023/11/12 02:20:53;;;;;;;24.92;17.35;;;6.60;99.90;;;;;;5099174;28;20211;-63
2023/11/12 02:23:20;;;;;;;23.98;18.30;;;6.60;99.90;;;;;;5097963;28;20700;-62
2023/11/12 02:25:48;;;;;;;21.60;17.95;;;6.50;99.90;;;;;;5098790;28;20230;-62
2023/11/12 02:28:16;;;;;;;25.38;18.70;;;6.60;99.90;;;;;;5099800;28;20193;-63
2023/11/12 02:30:43;;;;;;;24.65;19.17;;;6.60;99.90;;;;;;5099306;28;20231;-62
2023/11/12 02:33:10;;;;;;;23.48;18.58;;;6.60;99.90;;;;;;5098528;28;20196;-62
2023/11/12 02:35:42;;;;;;;23.70;19.88;;;6.50;99.90;;;;;;5096183;28;20224;-61
2023/11/12 02:38:10;;;;;;;24.55;18.75;;;6.60;99.90;;;;;;5095749;28;20216;-62
2023/11/12 02:40:37;;;;;;;26.90;19.63;;;6.60;99.90;;;;;;5097231;28;20200;-62
2023/11/12 02:43:05;;;;;;;23.85;18.42;;;6.60;99.90;;;;;;5099780;28;20196;-62
2023/11/12 02:45:32;;;;;;;26.45;19.05;;;6.60;99.90;;;;;;5104077;28;20278;-62
2023/11/12 02:47:58;;;;;;;26.33;18.90;;;6.60;99.90;;;;;;5102467;28;20288;-63
2023/11/12 02:50:30;;;;;;;24.55;19.40;;;6.60;99.90;;;;;;5102270;28;20200;-63
2023/11/12 02:52:59;;;;;;;29.38;19.75;;;6.50;99.90;;;;;;5102768;28;20181;-62
2023/11/12 02:55:27;;;;;;;25.05;19.70;;;6.60;99.90;;;;;;5109270;28;20216;-63
2023/11/12 02:57:53;;;;;;;28.17;19.42;;;6.60;99.90;;;;;;5106055;28;20216;-62
2023/11/12 03:00:24;;;;;;;26.50;19.63;;;6.60;99.90;;;;;;5104958;28;20651;-62
2023/11/12 03:02:51;;;;;;;25.25;17.95;;;6.60;99.90;;;;;;5098596;28;20188;-61
2023/11/12 03:05:17;;;;;;;28.25;19.77;;;6.60;99.90;;;;;;5097916;28;20247;-62
2023/11/12 03:07:44;;;;;;;28.67;20.60;;;6.60;99.90;;;;;;5097301;28;20206;-61
2023/11/12 03:10:11;;;;;;;26.25;19.05;;;6.60;99.90;;;;;;5096362;28;20206;-62
2023/11/12 03:12:38;;;;;;;28.02;19.98;;;6.60;99.90;;;;;;5097182;28;20189;-62
2023/11/12 03:15:07;;;;;;;27.75;19.80;;;6.60;99.90;;;;;;5097104;28;20224;-62
2023/11/12 03:17:36;;;;;;;23.52;18.20;;;6.70;99.90;;;;;;5098773;28;20206;-63
2023/11/12 03:20:04;;;;;;;24.48;18.08;;;6.60;99.90;;;;;;5096365;28;20201;-62
2023/11/12 03:22:33;;;;;;;23.67;19.60;;;6.70;99.90;;;;;;5096051;28;20295;-62
2023/11/12 03:25:00;;;;;;;25.52;20.48;;;6.60;99.90;;;;;;5095644;28;20274;-62
2023/11/12 03:27:27;;;;;;;25.55;19.23;;;6.60;99.90;;;;;;5095249;28;20666;-63
2023/11/12 03:29:54;;;;;;;24.42;17.55;;;6.70;99.90;;;;;;5095013;28;20204;-61
2023/11/12 03:32:21;;;;;;;20.30;16.83;;;6.60;99.90;;;;;;5095436;28;20197;-61
2023/11/12 03:34:49;;;;;;;23.23;19.35;;;6.70;99.90;;;;;;5096550;28;20329;-62
2023/11/12 03:37:17;;;;;;;22.02;17.67;;;6.60;99.90;;;;;;5096329;28;20291;-62
2023/11/12 03:39:44;;;;;;;27.98;18.60;;;6.60;99.90;;;;;;5096670;28;20223;-62
2023/11/12 03:42:11;;;;;;;27.20;19.13;;;6.60;99.90;;;;;;5096061;28;20216;-62
2023/11/12 03:44:38;;;;;;;20.25;16.90;;;6.60;99.90;;;;;;5096050;28;20252;-62
2023/11/12 03:47:05;;;;;;;25.13;17.42;;;6.60;99.90;;;;;;5100668;28;20200;-61
2023/11/12 03:49:32;;;;;;;22.45;16.67;;;6.60;99.90;;;;;;5096468;28;20196;-61
2023/11/12 03:52:00;;;;;;;24.40;18.23;;;6.50;99.90;;;;;;5096606;28;20204;-62
2023/11/12 03:54:27;;;;;;;24.67;17.55;;;6.50;99.90;;;;;;5097178;28;20224;-62
2023/11/12 03:56:54;;;;;;;23.80;19.20;;;6.40;99.90;;;;;;5095814;28;20215;-62
2023/11/12 03:59:21;;;;;;;22.48;17.55;;;6.40;99.90;;;;;;5097013;28;20250;-62
2023/11/12 04:01:48;;;;;;;21.48;17.75;;;6.30;99.90;;;;;;5095973;28;20288;-62
2023/11/12 04:04:15;;;;;;;24.85;19.38;;;6.20;99.90;;;;;;5095523;28;20208;-61
2023/11/12 04:06:41;;;;;;;23.88;19.25;;;6.10;99.90;;;;;;5095907;28;20211;-62
2023/11/12 04:12:33;;;;;;;24.38;19.00;;;5.90;99.90;;;;;;5137194;27;21071;-62
2023/11/12 04:15:00;;;;;;;24.67;19.05;;;5.90;99.90;;;;;;5136725;27;20286;-62
2023/11/12 04:17:27;;;;;;;27.45;19.70;;;5.80;99.90;;;;;;5135806;27;20203;-62
2023/11/12 04:19:53;;;;;;;26.25;20.60;;;5.80;99.90;;;;;;5135004;27;20195;-62
2023/11/12 04:22:20;;;;;;;29.52;22.98;;;5.70;99.90;;;;;;5135059;27;20199;-61
2023/11/12 04:24:47;;;;;;;27.95;21.20;;;5.70;99.90;;;;;;5135354;27;20225;-62
2023/11/12 04:27:14;;;;;;;26.23;20.52;;;5.70;99.90;;;;;;5132405;27;20199;-67
2023/11/12 04:29:42;;;;;;;31.33;21.10;;;5.60;99.90;;;;;;5133508;27;20207;-63
2023/11/12 04:32:09;;;;;;;26.38;19.48;;;5.60;99.90;;;;;;5134495;27;20219;-62
2023/11/12 04:34:35;;;;;;;27.25;20.60;;;5.50;99.90;;;;;;5134034;27;20231;-62
2023/11/12 04:37:02;;;;;;;26.92;20.63;;;5.50;99.90;;;;;;5133572;27;20209;-62
2023/11/12 04:39:29;;;;;;;30.40;20.80;;;5.40;99.90;;;;;;5134555;27;20206;-62
2023/11/12 04:41:55;;;;;;;27.08;19.73;;;5.40;99.90;;;;;;5135703;27;20206;-61
2023/11/12 04:44:23;;;;;;;32.20;21.98;;;5.40;99.90;;;;;;5140346;27;20223;-63
2023/11/12 04:46:52;;;;;;;32.33;21.60;;;5.40;99.90;;;;;;5137111;27;20268;-62
2023/11/12 04:49:19;;;;;;;30.73;21.70;;;5.30;99.90;;;;;;5133945;27;20199;-62
2023/11/12 04:51:45;;;;;;;29.23;22.65;;;5.40;99.90;;;;;;5132917;27;20223;-62
2023/11/12 04:54:12;;;;;;;32.03;21.73;;;5.40;99.90;;;;;;5134243;27;20314;-63
2023/11/12 04:56:45;;;;;;;28.17;20.55;;;5.30;99.90;;;;;;5134420;27;20201;-62
2023/11/12 04:59:12;;;;;;;28.80;20.67;;;5.30;99.90;;;;;;5133663;27;20620;-61
2023/11/12 05:01:39;;;;;;;28.05;20.08;;;5.30;99.90;;;;;;5139280;22;20228;-60
2023/11/12 05:04:07;;;;;;;27.85;19.75;;;5.30;99.90;;;;;;5090048;28;20204;-60
2023/11/12 05:06:34;;;;;;;27.60;20.58;;;5.20;99.90;;;;;;5089852;28;20204;-59
2023/11/12 05:09:01;;;;;;;30.25;21.17;;;5.30;99.90;;;;;;5090609;28;20203;-60
2023/11/12 05:11:28;;;;;;;32.05;22.02;;;5.30;99.90;;;;;;5090081;28;20600;-61
2023/11/12 05:13:55;;;;;;;31.75;22.50;;;5.30;99.90;;;;;;5089957;28;20204;-60
2023/11/12 05:16:22;;;;;;;30.02;22.40;;;5.40;99.90;;;;;;5089681;28;20299;-60
2023/11/12 05:18:49;;;;;;;31.50;22.00;;;5.40;99.90;;;;;;5090013;28;20205;-60
2023/11/12 05:21:18;;;;;;;31.27;23.23;;;5.40;99.90;;;;;;5089721;28;20728;-60
2023/11/12 05:23:45;;;;;;;33.58;22.67;;;5.50;99.90;;;;;;5077096;28;20220;-60
2023/11/12 05:26:13;;;;;;;31.90;21.98;;;5.50;99.90;;;;;;5076362;28;20205;-59
2023/11/12 05:28:40;;;;;;;30.55;20.63;;;5.60;99.90;;;;;;5076377;28;20291;-60
2023/11/12 05:31:07;;;;;;;28.88;21.10;;;5.60;99.90;;;;;;5076094;28;20229;-59
2023/11/12 05:33:34;;;;;;;28.13;19.13;;;5.60;99.90;;;;;;5076269;28;20690;-59
2023/11/12 05:36:01;;;;;;;29.98;21.20;;;5.60;99.90;;;;;;5076042;28;20288;-59
2023/11/12 05:38:29;;;;;;;30.27;21.58;;;5.60;99.90;;;;;;5076485;28;20197;-59
2023/11/12 05:40:55;;;;;;;28.63;19.90;;;5.50;99.90;;;;;;5076807;28;20197;-60
2023/11/12 05:43:22;;;;;;;32.67;20.58;;;5.50;99.90;;;;;;5078421;28;20201;-59
2023/11/12 05:45:49;;;;;;;29.10;20.92;;;5.40;99.90;;;;;;5079234;28;20686;-60
2023/11/12 05:48:16;;;;;;;27.00;19.33;;;5.30;99.90;;;;;;5076908;28;20235;-59
2023/11/12 05:50:43;;;;;;;30.45;20.25;;;5.20;99.90;;;;;;5081090;28;20223;-61
2023/11/12 05:53:10;;;;;;;28.17;20.48;;;5.20;99.90;;;;;;5084561;28;20225;-60
2023/11/12 05:55:38;;;;;;;27.92;19.52;;;5.10;99.90;;;;;;5084490;28;20621;-61
2023/11/12 05:58:05;;;;;;;23.30;17.58;;;5.10;99.90;;;;;;5083586;28;20223;-60
2023/11/12 06:00:32;;;;;;;26.08;18.58;;;5.10;99.90;;;;;;5082195;28;20201;-61
2023/11/12 06:02:59;;;;;;;28.58;20.23;;;5.10;99.90;;;;;;5081725;28;20227;-60
2023/11/12 06:05:25;;;;;;;31.08;20.38;;;5.10;99.90;;;;;;5078555;28;20204;-61
2023/11/12 06:07:52;;;;;;;23.85;18.98;;;5.10;99.90;;;;;;5076246;28;20197;-60
2023/11/12 06:10:19;;;;;;;30.48;20.05;;;5.00;99.90;;;;;;5076013;28;20205;-60
2023/11/12 06:12:47;;;;;;;30.85;21.05;;;5.00;99.90;;;;;;5075167;28;20228;-60
2023/11/12 06:15:14;;;;;;;29.35;19.67;;;5.10;99.90;;;;;;5075550;28;20531;-60
2023/11/12 06:17:41;;;;;;;27.30;20.17;;;5.10;99.90;;;;;;5078087;28;20207;-60
2023/11/12 06:20:08;;;;;;;33.28;22.27;;;5.20;99.90;;;;;;5082190;28;20201;-60
2023/11/12 06:22:35;;;;;;;28.33;20.33;;;5.20;99.90;;;;;;5078429;28;20221;-61
2023/11/12 06:25:02;;;;;;;29.67;21.20;;;5.30;99.90;;;;;;5075625;28;20205;-61
2023/11/12 06:27:29;;;;;;;29.15;20.90;;;5.40;99.90;;;;;;5075328;28;20204;-60
2023/11/12 06:29:57;;;;;;;28.95;20.67;;;5.50;99.90;;;;;;5075005;28;20201;-60
2023/11/12 06:32:24;;;;;;;29.48;20.08;;;5.50;99.90;;;;;;5074974;28;20264;-60
2023/11/12 06:34:51;;;;;;;29.67;20.60;;;5.60;99.90;;;;;;5074171;28;20212;-60
2023/11/12 06:37:18;;;;;;;28.63;20.77;;;5.60;99.90;;;;;;5075036;28;20208;-61
2023/11/12 06:39:46;;;;;;;31.23;21.08;;;5.70;99.90;;;;;;5075234;28;20205;-61
2023/11/12 06:42:13;;;;;;;32.97;21.58;;;5.70;99.90;;;;;;5074502;28;20213;-60
2023/11/12 06:44:40;;;;;;;32.72;21.00;;;5.70;99.90;;;;;;5074615;28;20201;-60
2023/11/12 06:47:08;;;;;;;25.52;18.48;;;5.80;99.90;;;;;;5074677;28;20609;-60
2023/11/12 06:49:35;;;;;;;29.40;19.55;;;5.80;99.90;;;;;;5074785;28;20211;-60
2023/11/12 06:52:01;;;;;;;26.05;19.00;;;5.80;99.90;;;;;;5075014;28;20357;-60
2023/11/12 06:54:28;;;;;;;26.77;19.80;;;5.90;99.90;;;;;;5074401;28;20644;-61
2023/11/12 06:56:56;;;;;;;29.70;20.17;;;5.90;99.90;;;;;;5074117;28;20521;-60
2023/11/12 06:59:22;;;;;;;29.08;20.63;;;5.90;99.90;;;;;;5074560;28;20207;-60
2023/11/12 07:01:49;;;;;;;26.92;19.02;;;6.00;99.90;;;;;;5073804;28;20319;-60
2023/11/12 07:04:17;;;;;;;28.95;20.23;;;6.00;99.90;;;;;;5074119;28;20666;-60
2023/11/12 07:06:44;;;;;;;28.10;19.52;;;6.10;99.90;;;;;;5074512;28;20281;-60
2023/11/12 07:09:12;;;;;;;30.50;19.50;;;6.10;99.90;;;;;;5073990;28;20205;-60
2023/11/12 07:11:39;;;;;;;25.98;18.65;;;6.20;99.90;;;;;;5073841;28;20749;-61
2023/11/12 07:14:06;;;;;;;23.95;17.40;;;6.20;99.90;;;;;;5074152;28;20205;-61
2023/11/12 07:16:33;;;;;;;27.95;19.15;;;6.20;99.90;;;;;;5073870;28;20762;-60
2023/11/12 07:19:00;;;;;;;25.42;18.27;;;6.30;99.90;;;;;;5074146;28;20201;-60
2023/11/12 07:21:30;;;;;;;25.10;18.58;;;6.30;99.90;;;;;;5073764;28;20706;-60
2023/11/12 07:23:57;;;;;;;29.60;19.15;;;6.40;99.90;;;;;;5074652;28;20564;-60
2023/11/12 07:26:25;;;;;;;21.42;17.88;;;6.40;99.90;;;;;;5073923;28;20205;-61
2023/11/12 07:28:51;;;;;;;28.67;18.20;;;6.50;99.90;;;;;;5074016;28;20197;-61
2023/11/12 07:31:20;;;;;;;24.73;19.52;;;6.50;99.90;;;;;;5073587;28;20245;-60
2023/11/12 07:33:47;;;;;;;30.50;18.00;;;6.50;99.90;;;;;;5073946;28;20258;-60
2023/11/12 07:36:13;;;;;;;21.17;16.63;;;6.60;99.90;;;;;;5073858;28;20201;-60
2023/11/12 07:38:42;;;;;;;22.05;16.05;;;6.60;99.90;;;;;;5073838;28;20197;-60
2023/11/12 07:41:09;;;;;;;20.92;16.73;;;6.70;99.90;;;;;;5074284;28;20231;-60
2023/11/12 07:43:36;;;;;;;21.00;15.93;;;6.70;99.90;;;;;;5073804;28;20251;-60
2023/11/12 07:46:03;;;;;;;20.13;14.25;;;6.80;99.90;;;;;;5073670;28;20251;-60
2023/11/12 07:48:30;;;;;;;22.27;15.43;;;6.80;99.90;;;;;;5073657;28;20253;-60
2023/11/12 07:50:57;;;;;;;18.73;14.43;;;6.90;99.90;;;;;;5073424;28;20617;-60
2023/11/12 07:53:24;;;;;;;21.80;15.90;;;6.90;99.90;;;;;;5074140;28;20221;-61
2023/11/12 07:55:52;;;;;;;19.05;14.18;;;7.00;99.90;;;;;;5073570;28;20197;-61
2023/11/12 07:58:19;;;;;;;17.60;13.98;;;7.00;99.90;;;;;;5073246;28;20218;-61
2023/11/12 08:00:46;;;;;;;17.15;13.65;;;7.10;99.90;;;;;;5073435;28;20209;-62
2023/11/12 08:03:13;;;;;;;18.30;15.10;;;7.10;99.90;;;;;;5074089;28;20589;-60
2023/11/12 08:05:40;;;;;;;18.15;13.70;;;7.10;99.90;;;;;;5073816;28;20200;-58
2023/11/12 08:08:07;;;;;;;14.98;12.80;;;7.20;99.90;;;;;;5073411;28;20247;-60
2023/11/12 08:10:37;;;;;;;14.63;11.40;;;7.20;99.90;;;;;;5073118;28;20201;-59
2023/11/12 08:13:05;;;;;;;15.60;13.02;;;7.20;99.90;;;;;;5073510;28;20235;-59
2023/11/12 08:15:31;;;;;;;17.90;12.95;;;7.20;99.90;;;;;;5073418;28;20204;-59
2023/11/12 08:17:58;;;;;;;13.80;11.93;;;7.30;99.90;;;;;;5073771;28;20302;-60
2023/11/12 08:20:25;;;;;;;15.70;12.75;;;7.30;99.90;;;;;;5073670;28;20224;-60
2023/11/12 08:22:52;;;;;;;19.17;13.32;;;7.30;99.90;;;;;;5073684;28;20220;-60
2023/11/12 08:25:19;;;;;;;15.43;11.90;;;7.30;99.90;;;;;;5076005;28;20201;-60
2023/11/12 08:27:45;;;;;;;15.70;11.90;;;7.40;99.90;;;;;;5078722;28;20427;-60
2023/11/12 08:30:14;;;;;;;14.77;11.88;;;7.40;99.90;;;;;;5077830;28;20211;-60
2023/11/12 08:32:41;;;;;;;15.10;11.10;;;7.40;99.90;;;;;;5077427;28;20227;-61
2023/11/12 08:35:08;;;;;;;14.50;11.88;;;7.50;99.90;;;;;;5080369;28;20292;-60
2023/11/12 08:37:36;;;;;;;15.07;10.98;;;7.50;99.90;;;;;;5081252;28;20205;-60
2023/11/12 08:40:04;;;;;;;15.70;11.88;;;7.60;99.90;;;;;;5079601;28;20203;-60
2023/11/12 08:42:31;;;;;;;15.43;12.10;;;7.60;99.90;;;;;;5078073;28;20619;-60
2023/11/12 08:44:58;;;;;;;13.20;11.18;;;7.60;99.90;;;;;;5074843;28;20283;-61
2023/11/12 08:47:26;;;;;;;14.10;11.48;;;7.70;99.90;;;;;;5074317;28;20247;-62
2023/11/12 08:49:53;;;;;;;14.38;11.95;;;7.70;99.90;;;;;;5073811;28;20197;-59
2023/11/12 08:52:21;;;;;;;15.32;12.32;;;7.80;99.90;;;;;;5073102;28;20225;-60
2023/11/12 08:54:49;;;;;;;15.07;12.90;;;7.80;99.90;;;;;;5073741;28;20706;-60
2023/11/12 08:57:15;;;;;;;14.18;11.70;;;7.90;99.90;;;;;;5073690;28;20324;-59
2023/11/12 08:59:42;;;;;;;12.00;10.75;;;7.90;99.90;;;;;;5077257;28;20205;-61
2023/11/12 09:02:09;;;;;;;11.75;9.40;;;8.00;99.90;;;;;;5076290;28;20391;-60
2023/11/12 09:04:38;;;;;;;13.63;10.80;;;8.00;99.90;;;;;;5076707;28;20593;-61
2023/11/12 09:07:07;;;;;;;12.07;10.85;;;8.00;99.90;;;;;;5076228;28;20205;-60
2023/11/12 09:09:33;;;;;;;15.60;11.20;;;8.00;99.90;;;;;;5076666;28;20204;-60
2023/11/12 09:12:00;;;;;;;15.10;10.93;;;8.00;99.90;;;;;;5076097;28;20619;-60
2023/11/12 09:14:27;;;;;;;12.52;11.23;;;8.00;99.90;;;;;;5076630;28;20228;-60
2023/11/12 09:16:54;;;;;;;11.55;10.32;;;8.00;99.90;;;;;;5076540;28;20197;-60
2023/11/12 09:19:21;;;;;;;11.82;9.65;;;8.00;99.90;;;;;;5076220;28;20205;-60
2023/11/12 09:21:49;;;;;;;11.65;10.40;;;8.00;99.90;;;;;;5076170;28;20609;-60
2023/11/12 09:24:15;;;;;;;15.15;10.35;;;8.00;99.90;;;;;;5077143;28;20205;-61
2023/11/12 09:26:42;;;;;;;12.98;11.57;;;8.00;99.90;;;;;;5076825;28;20581;-60
2023/11/12 09:29:09;;;;;;;12.85;10.10;;;8.10;99.90;;;;;;5076847;28;20196;-60
2023/11/12 09:31:36;;;;;;;12.82;10.88;;;8.10;99.90;;;;;;5076423;28;20225;-60
2023/11/12 09:34:02;;;;;;;12.63;9.32;;;8.10;99.90;;;;;;5076348;28;20231;-59
2023/11/12 09:36:29;;;;;;;12.85;10.25;;;8.20;99.90;;;;;;5076135;28;20662;-60
2023/11/12 09:38:57;;;;;;;15.30;9.43;;;8.20;99.90;;;;;;5075865;28;20259;-60
2023/11/12 09:41:25;;;;;;;9.18;8.27;;;8.30;99.90;;;;;;5077252;28;20221;-62
2023/11/12 09:43:53;;;;;;;11.02;9.05;;;8.30;99.90;;;;;;5077353;28;20284;-60
2023/11/12 09:46:22;;;;;;;10.05;9.00;;;8.40;99.90;;;;;;5076357;28;20213;-60
2023/11/12 09:48:49;;;;;;;13.68;9.50;;;8.40;99.90;;;;;;5075852;28;20236;-59
2023/11/12 09:51:17;;;;;;;10.32;8.93;;;8.50;99.90;;;;;;5076133;28;20236;-60
2023/11/12 09:53:47;;;;;;;10.02;9.02;;;8.50;99.90;;;;;;5076353;28;20223;-59
2023/11/12 09:56:15;;;;;;;11.73;8.50;;;8.50;99.90;;;;;;5076544;28;20246;-59
2023/11/12 09:58:44;;;;;;;15.73;8.93;;;8.60;99.90;;;;;;5075754;28;20204;-60
2023/11/12 10:01:13;;;;;;;9.70;8.70;;;8.60;99.90;;;;;;5075612;28;20291;-61
2023/11/12 10:03:41;;;;;;;8.55;7.75;;;8.60;99.90;;;;;;5075631;28;20666;-62
2023/11/12 10:06:10;;;;;;;11.93;8.52;;;8.60;99.90;;;;;;5075928;28;20308;-60
2023/11/12 10:08:38;;;;;;;9.65;8.68;;;8.70;99.90;;;;;;5075372;28;20209;-59
2023/11/12 10:11:17;;;;;;;11.73;9.55;;;8.70;99.90;;;;;;5075511;28;20227;-61
2023/11/12 10:13:43;;;;;;;9.13;8.15;;;8.70;99.90;;;;;;5075965;28;20225;-59
2023/11/12 10:16:24;;;;;;;9.88;8.60;;;8.80;99.90;;;;;;5075304;28;20208;-60
2023/11/12 10:18:51;;;;;;;9.82;8.80;;;8.80;99.90;;;;;;5075436;28;20227;-61
2023/11/12 10:21:19;;;;;;;9.93;9.00;;;8.90;99.90;;;;;;5075404;28;20229;-59
2023/11/12 10:23:46;;;;;;;9.30;8.40;;;9.00;99.90;;;;;;5075562;28;20590;-61
2023/11/12 10:26:15;;;;;;;8.57;7.53;;;9.00;99.90;;;;;;5075207;28;20209;-60
2023/11/12 10:28:42;;;;;;;10.18;7.80;;;9.10;99.90;;;;;;5075371;28;20266;-59
2023/11/12 10:31:13;;;;;;;11.15;7.38;;;9.10;99.90;;;;;;5074795;28;20229;-62
2023/11/12 10:33:41;;;;;;;10.45;8.15;;;9.10;99.90;;;;;;5075016;28;20300;-61
2023/11/12 10:36:10;;;;;;;9.45;7.28;;;9.20;99.90;;;;;;5075241;28;20359;-61
2023/11/12 10:38:47;;;;;;;8.90;7.50;;;9.30;99.90;;;;;;5075250;28;20592;-61
2023/11/12 10:41:16;;;;;;;8.20;7.30;;;9.30;99.90;;;;;;5074939;28;20968;-61
2023/11/12 10:43:57;;;;;;;8.93;8.03;;;9.30;99.90;;;;;;5074885;28;20803;-59
2023/11/12 10:46:25;;;;;;;9.97;7.13;;;9.30;99.90;;;;;;5074689;28;20431;-59
2023/11/12 10:48:54;;;;;;;8.50;7.20;;;9.30;99.90;;;;;;5074886;28;20443;-61
2023/11/12 10:51:21;;;;;;;8.27;7.05;;;9.40;99.90;;;;;;5074816;28;20558;-61
2023/11/12 10:53:54;;;;;;;9.15;7.93;;;9.40;99.90;;;;;;5074495;28;20257;-60
2023/11/12 10:56:22;;;;;;;8.10;7.30;;;9.40;99.90;;;;;;5074656;28;20642;-60
2023/11/12 10:58:50;;;;;;;9.33;7.90;;;9.50;99.90;;;;;;5075532;28;20593;-60
2023/11/12 11:01:18;;;;;;;7.73;6.77;;;9.50;99.90;;;;;;5075416;28;21014;-61
2023/11/12 11:03:46;;;;;;;8.73;7.13;;;9.50;99.90;;;;;;5078927;28;20423;-61
2023/11/12 11:06:15;;;;;;;8.50;6.68;;;9.60;99.90;;;;;;5082334;28;20514;-63
2023/11/12 11:08:42;;;;;;;7.75;6.95;;;9.60;99.90;;;;;;5082270;28;20201;-60
2023/11/12 11:11:10;;;;;;;9.10;8.20;;;9.60;99.90;;;;;;5082538;28;20231;-61
2023/11/12 11:13:38;;;;;;;11.40;7.73;;;9.60;99.90;;;;;;5082493;28;20217;-60
2023/11/12 11:16:06;;;;;;;10.57;8.20;;;9.60;99.90;;;;;;5081613;28;20440;-60
2023/11/12 11:18:52;;;;;;;10.20;8.00;;;9.60;99.90;;;;;;5077223;28;20203;-60
2023/11/12 11:21:19;;;;;;;8.60;7.65;;;9.70;99.90;;;;;;5077757;28;20473;-60
2023/11/12 11:23:52;;;;;;;7.70;6.90;;;9.70;99.90;;;;;;5076352;28;20204;-60
2023/11/12 11:26:40;;;;;;;7.78;6.97;;;9.80;99.90;;;;;;5077142;28;20420;-60
2023/11/12 11:29:20;;;;;;;13.05;9.77;;;9.70;99.90;;;;;;5069353;28;20201;-60
2023/11/12 11:32:18;;;;;;;12.10;8.67;;;9.70;99.90;;;;;;5074051;28;20224;-59
2023/11/12 11:34:47;;;;;;;8.90;8.07;;;9.60;99.90;;;;;;5073963;28;20875;-60
2023/11/12 11:37:14;;;;;;;9.10;6.33;;;9.60;99.90;;;;;;5074092;28;20435;-59
2023/11/12 11:39:41;;;;;;;9.97;8.10;;;9.60;99.90;;;;;;5073668;28;20908;-60
2023/11/12 11:42:20;;;;;;;7.97;6.77;;;9.60;99.90;;;;;;5073597;28;21014;-61
2023/11/12 11:44:52;;;;;;;11.90;6.13;;;9.70;99.90;;;;;;5073565;28;20537;-61
2023/11/12 11:47:22;;;;;;;6.10;5.50;;;9.70;99.90;;;;;;5074160;28;20868;-60
2023/11/12 11:49:50;;;;;;;8.55;7.10;;;9.70;99.90;;;;;;5073829;28;20444;-60
2023/11/12 11:52:22;;;;;;;9.10;6.40;;;9.70;99.90;;;;;;5073580;28;20225;-59
2023/11/12 11:54:57;;;;;;;8.40;6.47;;;9.80;99.90;;;;;;5073576;28;20274;-60
2023/11/12 11:57:26;;;;;;;9.60;6.47;;;9.90;99.90;;;;;;5073275;28;20434;-59
2023/11/12 11:59:55;;;;;;;9.40;5.80;;;10.00;99.90;;;;;;5073801;28;20486;-61
2023/11/12 12:02:23;;;;;;;5.80;5.13;;;10.10;99.90;;;;;;5073112;28;20482;-61
2023/11/12 12:04:53;;;;;;;7.57;5.80;;;10.20;99.90;;;;;;5073353;28;20540;-61
2023/11/12 12:07:24;;;;;;;8.20;5.90;;;10.30;99.90;;;;;;5073659;28;20447;-60
2023/11/12 12:09:51;;;;;;;6.13;4.90;;;10.40;99.90;;;;;;5073289;28;20447;-60
2023/11/12 12:12:19;;;;;;;8.50;5.80;;;10.40;99.90;;;;;;5073359;28;20467;-60
2023/11/12 12:14:46;;;;;;;5.60;5.00;;;10.40;99.90;;;;;;5073456;28;20555;-61
2023/11/12 12:17:14;;;;;;;6.40;5.63;;;10.40;99.90;;;;;;5073612;28;20447;-61
2023/11/12 12:19:42;;;;;;;8.20;6.07;;;10.40;99.90;;;;;;5073076;28;20538;-61
2023/11/12 12:22:09;;;;;;;8.20;5.70;;;10.40;99.90;;;;;;5073493;28;20463;-59
2023/11/12 12:24:37;;;;;;;7.60;5.60;;;10.40;99.90;;;;;;5073494;28;20443;-60
2023/11/12 12:27:09;;;;;;;5.90;5.20;;;10.30;99.90;;;;;;5073283;28;20447;-58
2023/11/12 12:29:38;;;;;;;9.83;6.23;;;10.20;99.90;;;;;;5074000;28;20439;-58
2023/11/12 12:32:18;;;;;;;6.13;5.53;;;10.10;99.90;;;;;;5073496;28;20467;-60
2023/11/12 12:34:48;;;;;;;6.67;6.07;;;10.10;99.90;;;;;;5077467;28;20878;-61
2023/11/12 12:37:21;;;;;;;8.17;5.30;;;10.10;99.90;;;;;;5077624;28;20435;-60
2023/11/12 12:39:52;;;;;;;6.60;5.07;;;10.10;99.90;;;;;;5077499;28;20524;-60
2023/11/12 12:42:21;;;;;;;5.73;5.23;;;10.10;99.90;;;;;;5079853;28;20237;-62
2023/11/12 12:44:49;;;;;;;6.57;5.30;;;10.10;99.90;;;;;;5077140;28;20817;-61
2023/11/12 12:47:34;;;;;;;7.63;5.50;;;10.10;99.90;;;;;;5077187;28;20431;-59